Meteo Giornale » Osservazioni meteo Argentina » Cordoba Aerodrome
ore: 17:00 - Osservazioni Meteo Cordoba Aerodrome
Lat. 31° 19' S Lon. 64° 13' W Alt. 484 metri s.l.m.
17 °C
Nuvoloso
Temp. 24 Ore
7 °C
22 °C
Ovest/Nord-Ovest
11.1 Km/h
Dew point 11 °C
Umidità 67 %
Visibilità 10 Km
Il sole sorge alle ore 07:33
Il sole tramonta alle ore 19:00
| Data e Ora | Cielo e Fenomeni | T °C | DP °C | Um. % | Pres. hPa | Vis. km | Vento km/h | |
|---|---|---|---|---|---|---|---|---|
| Oggi h: 17:00 | Nuvoloso | 17 | 11 | 67 | 1016 | 10 | O/NO 11.1 | |
| Oggi h: 16:00 | Pioggia | 14 | 10 | 76 | 1017 | 10 | O 9.3 | |
| Oggi h: 15:00 | Temporale | 14 | 9 | 71 | 1016 | 3 | SO 25.9 | |
| Oggi h: 14:43 | Temporale polveroso | 17 | 6 | 48 | 1015 | 3 | SO 46.3 | |
| Oggi h: 14:31 | Temporale | 21 | 9 | 46 | 1015 | 8 | S/SE 24 | |
| Oggi h: 14:00 | Molto Nuvoloso | 22 | 9 | 43 | 1014 | 10 | S/SE 25.9 | |
| Oggi h: 13:00 | Poco Nuvoloso | 22 | 10 | 46 | 1014 | 10 | SO 20.3 | |
| Oggi h: 12:00 | Poco Nuvoloso | 20 | 11 | 56 | 1014 | 10 | N 13 | |
| Oggi h: 11:00 | Sereno | 18 | 11 | 63 | 1013 | 10 | S/SO 9.3 | |
| Oggi h: 10:00 | Sereno | 14 | 12 | 87 | 1013 | 10 | O/SO 14.8 | |
| Oggi h: 09:00 | Sereno | 11 | 10 | 93 | 1013 | 10 | N 5.5 | |
| Oggi h: 08:00 | Sereno | 8 | 7 | 93 | 1012 | 10 | N 5.5 | |
| Oggi h: 07:00 | Sereno | 8 | 7 | 93 | 1011 | 10 | N 3.7 | |
| Oggi h: 06:00 | Poco Nuvoloso | 8 | 7 | 93 | 1011 | 10 | NO 7.4 | |
| Oggi h: 05:00 | Sereno | 7 | 6 | 93 | 1011 | 10 | O/NO 7.4 | |
| Oggi h: 04:00 | Sereno | 8 | 7 | 93 | 1011 | 10 | N/NO 9.3 | |
| Oggi h: 03:00 | Sereno | 9 | 8 | 93 | 1012 | 10 | O/NO 7.4 | |
| Oggi h: 02:00 | Sereno | 9 | 8 | 93 | 1012 | 10 | O/NO 7.4 | |
| Oggi h: 01:00 | Sereno | 10 | 9 | 93 | 1013 | 10 | NO 9.3 | |
| Oggi h: 00:00 | Sereno | 9 | 8 | 93 | 1013 | 10 | N 18.5 | |
| Ieri h: 23:00 | Sereno | 12 | 10 | 87 | 1013 | 10 | N/NO 13 | |
| Ieri h: 22:00 | Sereno | 11 | 9 | 87 | 1013 | 10 | N 14.8 | |
| Ieri h: 21:00 | Sereno | 11 | 8 | 81 | 1013 | 10 | N 16.7 | |
| Ieri h: 20:00 | Sereno | 13 | 8 | 71 | 1012 | 10 | N 14.8 | |
| Ieri h: 19:00 | Sereno | 17 | 8 | 55 | 1011 | 10 | NE 11.1 | |



